Time;durP1;ratioP1;P1;durP2;ratioP2;P2;SDS_P1;SDS_P2;PMS_P1;PMS_P2;Temp;Humidity;BMP_temperature;BMP_pressure;BME280_temperature;BME280_humidity;BME280_pressure;Samples;Min_cycle;Max_cycle;Signal;HPM_P1;HPM_P2
2022/05/02 00:00:16;;;;;;;14.13;9.32;;;25.00;99.90;;;;;;5044669;22;20345;-48
2022/05/02 00:02:42;;;;;;;14.30;9.23;;;25.00;99.90;;;;;;5028923;28;20116;-47
2022/05/02 00:05:08;;;;;;;14.38;9.32;;;25.00;99.90;;;;;;5030496;28;20124;-48
2022/05/02 00:07:35;;;;;;;14.80;10.13;;;25.00;99.90;;;;;;5026941;28;20018;-49
2022/05/02 00:10:01;;;;;;;14.48;10.60;;;25.00;99.90;;;;;;5029628;28;20477;-48
2022/05/02 00:12:27;;;;;;;18.35;10.77;;;25.00;99.90;;;;;;5028561;28;20033;-48
2022/05/02 00:14:53;;;;;;;14.93;10.07;;;25.00;99.90;;;;;;5031164;28;20029;-47
2022/05/02 00:17:18;;;;;;;14.40;9.23;;;25.00;99.90;;;;;;5031388;28;20037;-47
2022/05/02 00:19:44;;;;;;;15.75;10.18;;;25.00;99.90;;;;;;5028360;28;20030;-47
2022/05/02 00:22:10;;;;;;;15.02;10.45;;;25.00;99.90;;;;;;5030947;28;20381;-48
2022/05/02 00:24:37;;;;;;;15.88;10.02;;;25.00;99.90;;;;;;5031896;28;20033;-50
2022/05/02 00:27:05;;;;;;;17.23;11.20;;;25.00;99.90;;;;;;5032337;28;20083;-49
2022/05/02 00:29:30;;;;;;;17.92;11.32;;;25.00;99.90;;;;;;5028209;28;20073;-48
2022/05/02 00:31:56;;;;;;;17.27;10.48;;;25.00;99.90;;;;;;5030822;28;20036;-48
2022/05/02 00:34:22;;;;;;;15.10;10.60;;;24.90;99.90;;;;;;5031383;28;20768;-49
2022/05/02 00:36:48;;;;;;;15.80;11.52;;;24.90;99.90;;;;;;5032171;28;20030;-49
2022/05/02 00:39:13;;;;;;;15.48;11.25;;;24.90;99.90;;;;;;5030383;28;20028;-49
2022/05/02 00:41:39;;;;;;;15.75;11.52;;;24.90;99.90;;;;;;5031835;28;20037;-48
2022/05/02 00:44:05;;;;;;;14.43;10.50;;;24.90;99.90;;;;;;5031663;28;20118;-49
2022/05/02 00:46:32;;;;;;;16.48;11.48;;;24.90;99.90;;;;;;5031442;28;20036;-49
2022/05/02 00:48:58;;;;;;;16.67;11.45;;;24.90;99.90;;;;;;5030168;28;20026;-50
2022/05/02 00:51:24;;;;;;;16.45;12.02;;;24.90;99.90;;;;;;5027942;28;20028;-51
2022/05/02 00:53:51;;;;;;;15.90;11.73;;;24.90;99.90;;;;;;5026881;28;20123;-49
2022/05/02 00:56:20;;;;;;;19.20;11.77;;;24.90;99.90;;;;;;5027337;28;20366;-49
2022/05/02 00:58:48;;;;;;;20.05;12.73;;;24.90;99.90;;;;;;5030080;28;20032;-51
2022/05/02 01:01:15;;;;;;;18.83;12.52;;;24.90;99.90;;;;;;5043044;22;20129;-47
2022/05/02 01:03:41;;;;;;;18.75;12.05;;;24.90;99.90;;;;;;5030880;28;20109;-47
2022/05/02 01:09:08;;;;;;;17.17;12.30;;;24.90;99.90;;;;;;4957941;28;20031;-47
2022/05/02 01:11:33;;;;;;;18.13;12.65;;;24.90;99.90;;;;;;5018191;28;20040;-46
2022/05/02 01:13:59;;;;;;;18.13;13.43;;;24.90;99.90;;;;;;5030905;28;20032;-46
2022/05/02 01:16:27;;;;;;;18.55;13.52;;;24.90;99.90;;;;;;5030679;28;20079;-47
2022/05/02 01:18:55;;;;;;;19.60;13.32;;;24.90;99.90;;;;;;5026877;28;20115;-47
2022/05/02 01:21:23;;;;;;;18.98;13.38;;;24.90;99.90;;;;;;5031238;28;20029;-47
2022/05/02 01:23:52;;;;;;;19.35;13.18;;;24.80;99.90;;;;;;5028972;28;20021;-47
2022/05/02 01:26:18;;;;;;;20.35;13.85;;;24.80;99.90;;;;;;5027308;28;20033;-46
2022/05/02 01:28:53;;;;;;;21.73;14.57;;;24.80;99.90;;;;;;5022236;28;20029;-47
2022/05/02 01:31:19;;;;;;;21.23;13.50;;;24.80;99.90;;;;;;5026904;28;20017;-47
2022/05/02 01:33:46;;;;;;;19.50;14.05;;;24.80;99.90;;;;;;5030553;28;20048;-47
2022/05/02 01:36:12;;;;;;;21.85;13.73;;;24.80;99.90;;;;;;5031015;28;20021;-46
2022/05/02 01:38:38;;;;;;;22.58;13.82;;;24.80;99.90;;;;;;5025185;28;20037;-47
2022/05/02 01:41:06;;;;;;;21.67;13.85;;;24.80;99.90;;;;;;5024776;28;20409;-46
2022/05/02 01:43:50;;;;;;;21.88;16.30;;;24.90;99.90;;;;;;5026228;28;20018;-47
2022/05/02 01:46:16;;;;;;;23.77;15.77;;;24.80;99.90;;;;;;5025134;28;20087;-46
2022/05/02 01:48:42;;;;;;;20.13;14.95;;;24.80;99.90;;;;;;5024713;28;20025;-46
2022/05/02 01:51:08;;;;;;;18.90;15.13;;;24.80;99.90;;;;;;5026648;28;20032;-46
2022/05/02 01:53:34;;;;;;;19.65;14.80;;;24.80;99.90;;;;;;5026375;28;20389;-46
2022/05/02 01:56:00;;;;;;;26.27;15.13;;;24.80;99.90;;;;;;5021873;28;20024;-45
2022/05/02 01:58:25;;;;;;;23.67;16.20;;;24.80;99.90;;;;;;5027099;28;20025;-46
2022/05/02 02:01:10;;;;;;;23.20;16.70;;;24.80;99.90;;;;;;5027933;28;20156;-45
2022/05/02 02:03:36;;;;;;;23.88;16.38;;;24.80;99.90;;;;;;5028782;28;20497;-46
2022/05/02 02:06:02;;;;;;;20.83;15.95;;;24.80;99.90;;;;;;5026716;28;20018;-46
2022/05/02 02:08:31;;;;;;;23.25;16.58;;;24.80;99.90;;;;;;5026075;28;20039;-46
2022/05/02 02:11:02;;;;;;;22.55;16.20;;;24.80;99.90;;;;;;5024027;28;20045;-46
2022/05/02 02:13:28;;;;;;;25.30;17.42;;;24.80;99.90;;;;;;5023329;28;20073;-47
2022/05/02 02:15:54;;;;;;;25.38;16.67;;;24.80;99.90;;;;;;5026758;28;20057;-47
2022/05/02 02:18:20;;;;;;;23.80;17.63;;;24.80;99.90;;;;;;5024726;28;20025;-46
2022/05/02 02:20:48;;;;;;;23.58;17.38;;;24.80;99.90;;;;;;5026039;28;20037;-47
2022/05/02 02:23:15;;;;;;;24.65;16.50;;;24.80;99.90;;;;;;5026465;28;20087;-46
2022/05/02 02:25:41;;;;;;;26.27;18.25;;;24.70;99.90;;;;;;5026236;28;20062;-46
2022/05/02 02:28:08;;;;;;;24.65;16.67;;;24.70;99.90;;;;;;5026011;28;20310;-47
2022/05/02 02:30:34;;;;;;;23.90;16.50;;;24.70;99.90;;;;;;5027435;28;20125;-46
2022/05/02 02:33:01;;;;;;;24.92;18.10;;;24.70;99.90;;;;;;5031606;28;20037;-47
2022/05/02 02:35:29;;;;;;;25.70;17.80;;;24.70;99.90;;;;;;5031700;28;20027;-47
2022/05/02 02:37:55;;;;;;;23.73;16.52;;;24.70;99.90;;;;;;5027859;28;20503;-46
2022/05/02 02:40:21;;;;;;;23.25;17.52;;;24.70;99.90;;;;;;5030937;28;20112;-47
2022/05/02 02:42:47;;;;;;;24.70;18.00;;;24.70;99.90;;;;;;5030296;28;20072;-47
2022/05/02 02:45:13;;;;;;;23.35;17.58;;;24.70;99.90;;;;;;5031516;28;20469;-47
2022/05/02 02:47:39;;;;;;;23.23;16.43;;;24.70;99.90;;;;;;5031673;28;20025;-46
2022/05/02 02:50:06;;;;;;;23.70;16.75;;;24.70;99.90;;;;;;5031712;28;20496;-47
2022/05/02 02:52:31;;;;;;;25.70;18.10;;;24.70;99.90;;;;;;5031400;28;20485;-46
2022/05/02 02:54:57;;;;;;;22.98;18.27;;;24.70;99.90;;;;;;5031072;28;20026;-47
2022/05/02 02:57:23;;;;;;;28.15;18.33;;;24.70;99.90;;;;;;5031462;28;20498;-47
2022/05/02 02:59:49;;;;;;;26.48;17.75;;;24.70;99.90;;;;;;5030537;28;20055;-47
2022/05/02 03:02:14;;;;;;;24.50;17.67;;;24.70;99.90;;;;;;5031389;28;20079;-47
2022/05/02 03:07:26;;;;;;;25.23;18.77;;;24.70;99.90;;;;;;5031330;28;20117;-47
2022/05/02 03:09:52;;;;;;;26.17;18.08;;;24.60;99.90;;;;;;5031161;28;20018;-47
2022/05/02 03:12:19;;;;;;;22.52;17.30;;;24.60;99.90;;;;;;5031274;28;20037;-47
2022/05/02 03:14:45;;;;;;;24.75;17.05;;;24.60;99.90;;;;;;5031235;28;20041;-47
2022/05/02 03:17:30;;;;;;;28.42;19.25;;;24.60;99.90;;;;;;5027237;28;20042;-47
2022/05/02 03:19:56;;;;;;;34.97;19.40;;;24.60;99.90;;;;;;5011351;28;20030;-47
2022/05/02 03:22:21;;;;;;;25.70;17.65;;;24.60;99.90;;;;;;5022638;28;20133;-47
2022/05/02 03:24:47;;;;;;;27.55;19.30;;;24.60;99.90;;;;;;5011493;28;20061;-47
2022/05/02 03:27:13;;;;;;;28.30;19.92;;;24.60;99.90;;;;;;5011272;28;20125;-47
2022/05/02 03:29:39;;;;;;;27.23;18.58;;;24.60;99.90;;;;;;5011632;28;20021;-47
2022/05/02 03:32:05;;;;;;;30.83;20.80;;;24.60;99.90;;;;;;5011174;28;20030;-47
2022/05/02 03:34:31;;;;;;;27.73;20.42;;;24.60;99.90;;;;;;5011205;28;20080;-47
2022/05/02 03:36:57;;;;;;;27.80;18.63;;;24.60;99.90;;;;;;5011294;28;20031;-47
2022/05/02 03:39:22;;;;;;;27.10;19.73;;;24.60;99.90;;;;;;5011284;28;20064;-47
2022/05/02 03:42:07;;;;;;;26.65;20.00;;;24.60;99.90;;;;;;5011261;28;20022;-47
2022/05/02 03:44:51;;;;;;;27.88;20.25;;;24.50;99.90;;;;;;5011165;28;20058;-47
2022/05/02 03:47:18;;;;;;;29.90;21.00;;;24.50;99.90;;;;;;5011198;28;20046;-48
2022/05/02 03:49:44;;;;;;;29.57;20.63;;;24.60;99.90;;;;;;5011226;28;20030;-47
2022/05/02 03:52:10;;;;;;;31.08;21.10;;;24.50;99.90;;;;;;5011362;28;20275;-47
2022/05/02 03:54:36;;;;;;;31.55;21.25;;;24.50;99.90;;;;;;5011109;28;20397;-47
2022/05/02 03:57:02;;;;;;;31.27;21.48;;;24.50;99.90;;;;;;5011175;28;20538;-47
2022/05/02 03:59:27;;;;;;;27.77;20.52;;;24.50;99.90;;;;;;5011688;28;20046;-48
2022/05/02 04:01:53;;;;;;;27.20;20.38;;;24.50;99.90;;;;;;5010183;28;20101;-47
2022/05/02 04:04:19;;;;;;;32.08;21.85;;;24.50;99.90;;;;;;5011004;28;20030;-46
2022/05/02 04:06:46;;;;;;;29.20;21.33;;;24.50;99.90;;;;;;5013181;28;20018;-46
2022/05/02 04:09:12;;;;;;;30.33;21.85;;;24.50;99.90;;;;;;5014766;28;20033;-47
2022/05/02 04:11:38;;;;;;;31.25;21.73;;;24.50;99.90;;;;;;5029555;28;20022;-46
2022/05/02 04:14:04;;;;;;;34.33;21.80;;;24.50;99.90;;;;;;5014432;28;20443;-46
2022/05/02 04:16:30;;;;;;;36.65;22.23;;;24.50;99.90;;;;;;5014367;28;20351;-48
2022/05/02 04:18:56;;;;;;;32.25;21.80;;;24.50;99.90;;;;;;5014569;28;20041;-47
2022/05/02 04:24:06;;;;;;;28.88;21.38;;;24.50;99.90;;;;;;5014373;28;20025;-47
2022/05/02 04:26:32;;;;;;;30.17;20.83;;;24.40;99.90;;;;;;5012952;28;20026;-47
2022/05/02 04:28:57;;;;;;;29.75;21.08;;;24.50;99.90;;;;;;5014294;28;20033;-46
2022/05/02 04:31:23;;;;;;;30.02;21.23;;;24.40;99.90;;;;;;5014101;28;20057;-47
2022/05/02 04:33:49;;;;;;;26.75;19.95;;;24.40;99.90;;;;;;5029300;28;20034;-47
2022/05/02 04:36:15;;;;;;;30.05;20.85;;;24.40;99.90;;;;;;5013278;28;20029;-46
2022/05/02 04:38:41;;;;;;;28.00;18.83;;;24.40;99.90;;;;;;5014291;28;20113;-47
2022/05/02 04:41:06;;;;;;;26.73;19.98;;;24.40;99.90;;;;;;5014134;28;20033;-47
2022/05/02 04:43:32;;;;;;;34.30;21.50;;;24.40;99.90;;;;;;5014061;28;20105;-47
2022/05/02 04:48:42;;;;;;;25.85;19.30;;;24.40;99.90;;;;;;5014384;28;20692;-47
2022/05/02 04:51:08;;;;;;;26.13;19.80;;;24.40;99.90;;;;;;5013838;28;20101;-47
2022/05/02 04:53:34;;;;;;;27.33;18.70;;;24.40;99.90;;;;;;5013601;28;20097;-47
2022/05/02 04:56:00;;;;;;;30.92;19.67;;;24.30;99.90;;;;;;5013745;28;20022;-47
2022/05/02 04:58:26;;;;;;;29.38;19.55;;;24.40;99.90;;;;;;5012433;28;20465;-47
2022/05/02 05:00:52;;;;;;;29.13;19.75;;;24.40;99.90;;;;;;5013758;28;20053;-46
2022/05/02 05:03:18;;;;;;;25.63;18.50;;;24.30;99.90;;;;;;5013765;28;20422;-47
2022/05/02 05:05:44;;;;;;;26.38;19.17;;;24.30;99.90;;;;;;5012487;28;20034;-47
2022/05/02 05:08:10;;;;;;;26.95;19.52;;;24.30;99.90;;;;;;5013666;28;20181;-47
2022/05/02 05:10:51;;;;;;;26.17;18.52;;;24.30;99.90;;;;;;5013496;28;20185;-47
2022/05/02 05:13:19;;;;;;;29.73;19.55;;;24.30;99.90;;;;;;5013537;28;20053;-45
2022/05/02 05:19:03;;;;;;;30.95;20.45;;;24.30;99.90;;;;;;5012831;28;20056;-46
2022/05/02 05:21:45;;;;;;;;;;;24.30;99.90;;;;;;5013791;28;20033;-46
2022/05/02 05:24:19;;;;;;;28.05;19.40;;;24.30;99.90;;;;;;5013416;28;19964;-46
2022/05/02 05:27:12;;;;;;;30.15;21.58;;;24.30;99.90;;;;;;5013464;28;20484;-47
2022/05/02 05:29:51;;;;;;;31.13;21.20;;;24.30;99.90;;;;;;5013373;28;20087;-47
2022/05/02 05:32:38;;;;;;;31.90;20.38;;;24.30;99.90;;;;;;5013311;28;20091;-46
2022/05/02 05:35:06;;;;;;;28.25;19.65;;;24.30;99.90;;;;;;5013103;28;20451;-46
2022/05/02 05:37:48;;;;;;;28.33;20.15;;;24.30;99.90;;;;;;5012928;28;20041;-46
2022/05/02 05:40:14;;;;;;;29.83;19.75;;;24.30;99.90;;;;;;5013156;28;20030;-46
2022/05/02 05:43:08;;;;;;;31.40;19.52;;;24.30;99.90;;;;;;5012913;28;20022;-46
2022/05/02 05:45:49;;;;;;;28.58;19.75;;;24.30;99.90;;;;;;5012838;28;20021;-46
2022/05/02 05:48:50;;;;;;;27.50;19.90;;;24.30;99.90;;;;;;5012956;28;20152;-47
2022/05/02 05:51:25;;;;;;;25.55;18.38;;;24.30;99.90;;;;;;4999883;28;20045;-46
2022/05/02 05:54:17;;;;;;;29.90;19.73;;;24.30;99.90;;;;;;5012585;28;20505;-46
2022/05/02 05:57:03;;;;;;;25.90;18.23;;;24.30;99.90;;;;;;5012594;28;20088;-46
2022/05/02 05:59:53;;;;;;;27.00;18.88;;;24.30;99.90;;;;;;5012433;28;20537;-47
2022/05/02 06:02:29;;;;;;;28.58;19.17;;;24.30;99.90;;;;;;5011730;28;20087;-47
2022/05/02 06:04:58;;;;;;;26.02;18.75;;;24.30;99.90;;;;;;5012533;28;20474;-46
2022/05/02 06:07:28;;;;;;;24.20;17.73;;;24.30;99.90;;;;;;5012494;28;20096;-46
2022/05/02 06:09:59;;;;;;;25.13;17.92;;;24.30;99.90;;;;;;5012522;28;20033;-46
2022/05/02 06:12:29;;;;;;;26.25;19.27;;;24.30;99.90;;;;;;5012340;28;20034;-46
2022/05/02 06:20:38;;;;;;;24.73;18.08;;;24.30;99.90;;;;;;4983555;28;20112;-46
2022/05/02 06:23:09;;;;;;;24.00;16.92;;;24.30;99.90;;;;;;5012410;28;20034;-46
2022/05/02 06:25:40;;;;;;;24.65;17.48;;;24.30;99.90;;;;;;5012173;28;20397;-46
2022/05/02 06:28:08;;;;;;;27.20;18.67;;;24.30;99.90;;;;;;5012271;28;20022;-45
2022/05/02 06:30:39;;;;;;;25.27;17.38;;;24.30;99.90;;;;;;5011155;28;20481;-46
2022/05/02 06:33:13;;;;;;;26.27;17.80;;;24.30;99.90;;;;;;5011958;28;20045;-47
2022/05/02 06:36:06;;;;;;;21.40;16.48;;;24.30;99.90;;;;;;5012123;28;20045;-47
2022/05/02 06:39:02;;;;;;;24.17;17.23;;;24.30;99.90;;;;;;5012057;28;20032;-47
2022/05/02 06:41:31;;;;;;;26.10;17.58;;;24.30;99.90;;;;;;5011812;28;20014;-49
2022/05/02 06:44:18;;;;;;;24.58;17.35;;;24.30;99.90;;;;;;5011787;28;20018;-48
2022/05/02 06:47:00;;;;;;;23.33;16.70;;;24.30;99.90;;;;;;5011776;28;20026;-48
2022/05/02 06:49:26;;;;;;;21.15;16.40;;;24.30;99.90;;;;;;5011830;28;20068;-48
2022/05/02 06:51:57;;;;;;;24.67;16.65;;;24.30;99.90;;;;;;5011742;28;20029;-53
2022/05/02 06:54:42;;;;;;;27.05;16.70;;;24.30;99.90;;;;;;5011801;28;20026;-48
2022/05/02 06:57:23;;;;;;;24.73;16.52;;;24.30;99.90;;;;;;5011647;28;20588;-47
2022/05/02 06:59:57;;;;;;;21.42;15.68;;;24.30;99.90;;;;;;5011635;28;20046;-48
2022/05/02 07:02:51;;;;;;;22.00;15.93;;;24.30;99.90;;;;;;5011820;28;20625;-46
2022/05/02 07:05:44;;;;;;;21.77;15.50;;;24.30;99.90;;;;;;5011463;28;20508;-46
2022/05/02 07:08:12;;;;;;;23.67;16.40;;;24.30;99.90;;;;;;5011548;28;20025;-46
2022/05/02 07:10:43;;;;;;;19.55;14.80;;;24.30;99.90;;;;;;5011524;28;20026;-46
2022/05/02 07:13:34;;;;;;;19.08;14.25;;;24.30;99.90;;;;;;5011471;28;20034;-47
2022/05/02 07:16:15;;;;;;;22.20;15.20;;;24.30;99.90;;;;;;5026509;28;20473;-47
2022/05/02 07:18:45;;;;;;;21.23;14.85;;;24.30;99.90;;;;;;5011537;28;20037;-47
2022/05/02 07:21:39;;;;;;;19.25;14.20;;;24.30;99.90;;;;;;5011418;28;20026;-48
2022/05/02 07:24:42;;;;;;;22.63;15.25;;;24.40;99.90;;;;;;5011441;28;20036;-47
2022/05/02 07:27:35;;;;;;;21.58;15.13;;;24.30;99.90;;;;;;5011370;28;20077;-47
2022/05/02 07:30:01;;;;;;;20.98;14.35;;;24.30;99.90;;;;;;5011455;28;20028;-47
2022/05/02 07:32:29;;;;;;;19.60;14.80;;;24.40;99.90;;;;;;5011414;28;20034;-47
2022/05/02 07:34:56;;;;;;;18.58;13.88;;;24.30;99.90;;;;;;5011430;28;20046;-46
2022/05/02 07:37:22;;;;;;;23.25;14.13;;;24.30;99.90;;;;;;5011446;28;20052;-47
2022/05/02 07:39:49;;;;;;;18.80;13.50;;;24.30;99.90;;;;;;5010097;28;20580;-47
2022/05/02 07:42:15;;;;;;;19.23;14.23;;;24.30;99.90;;;;;;5014406;28;20565;-47
2022/05/02 07:44:43;;;;;;;20.25;13.95;;;24.40;99.90;;;;;;5015090;28;20033;-47
2022/05/02 07:47:11;;;;;;;17.48;13.20;;;24.30;99.90;;;;;;5015189;28;20021;-47
2022/05/02 07:49:39;;;;;;;;;;;24.40;99.90;;;;;;5015469;28;20034;-47
2022/05/02 07:52:08;;;;;;;17.63;13.15;;;24.40;99.90;;;;;;5014954;28;19960;-47
2022/05/02 07:54:38;;;;;;;17.88;13.00;;;24.40;99.90;;;;;;5015015;28;20053;-47
2022/05/02 07:57:07;;;;;;;18.63;13.13;;;24.40;99.90;;;;;;5014996;28;20052;-47
2022/05/02 07:59:39;;;;;;;19.20;12.70;;;24.40;99.90;;;;;;5015100;28;20088;-47
2022/05/02 08:02:06;;;;;;;17.70;13.10;;;24.40;99.90;;;;;;5013518;28;20121;-47
2022/05/02 08:04:32;;;;;;;18.70;13.30;;;24.40;99.90;;;;;;5014842;28;20093;-47
2022/05/02 08:07:09;;;;;;;17.17;11.82;;;24.40;99.90;;;;;;5014820;28;20041;-47
2022/05/02 08:09:53;;;;;;;19.20;13.20;;;24.40;99.90;;;;;;5014857;28;20030;-48
2022/05/02 08:15:15;;;;;;;18.65;12.73;;;24.30;99.90;;;;;;5014492;28;20062;-47
2022/05/02 08:18:07;;;;;;;18.00;12.38;;;24.40;99.90;;;;;;5014598;28;20068;-48
2022/05/02 08:20:54;;;;;;;16.23;11.30;;;24.40;99.90;;;;;;5014350;28;20022;-47
2022/05/02 08:29:52;;;;;;;16.23;11.07;;;24.40;99.90;;;;;;5014238;28;20053;-48
2022/05/02 08:32:39;;;;;;;14.93;10.95;;;24.40;99.90;;;;;;5014047;28;20057;-48
2022/05/02 08:35:18;;;;;;;;;;;24.40;99.90;;;;;;5014672;28;20028;-46
2022/05/02 08:37:53;;;;;;;15.00;10.45;;;24.40;99.90;;;;;;5014319;28;19916;-47
2022/05/02 08:40:24;;;;;;;13.73;10.50;;;24.40;99.90;;;;;;5014078;28;20025;-47
2022/05/02 08:43:12;;;;;;;13.35;9.77;;;24.40;99.90;;;;;;5014011;28;20022;-47
2022/05/02 08:45:38;;;;;;;;;;;24.40;99.90;;;;;;5014340;28;20018;-48
2022/05/02 08:48:12;;;;;;;14.75;9.15;;;24.40;99.90;;;;;;5013869;28;20063;-48
2022/05/02 08:50:50;;;;;;;15.52;9.32;;;24.40;99.90;;;;;;5013678;28;20061;-48
2022/05/02 08:53:34;;;;;;;;;;;24.40;99.90;;;;;;5013255;28;20508;-46
2022/05/02 08:56:09;;;;;;;12.85;9.68;;;24.40;99.90;;;;;;5013723;28;19932;-47
2022/05/02 08:59:01;;;;;;;14.80;9.75;;;24.40;99.90;;;;;;5013670;28;20034;-47
2022/05/02 09:02:08;;;;;;;14.50;10.13;;;24.40;99.90;;;;;;5005269;28;20046;-47
2022/05/02 09:04:42;;;;;;;12.73;9.55;;;24.30;99.90;;;;;;4992907;28;20034;-48
2022/05/02 09:07:27;;;;;;;13.23;8.98;;;24.40;99.90;;;;;;5013601;28;20030;-47
2022/05/02 09:10:27;;;;;;;14.43;9.57;;;24.40;99.90;;;;;;5013715;28;20029;-48
2022/05/02 09:13:21;;;;;;;12.45;9.15;;;24.40;99.90;;;;;;5013395;28;20041;-48
2022/05/02 09:16:16;;;;;;;12.25;8.52;;;24.40;99.90;;;;;;5013600;28;20022;-48
2022/05/02 09:18:42;;;;;;;12.65;8.43;;;24.40;99.90;;;;;;5013472;28;20037;-47
2022/05/02 09:21:40;;;;;;;12.05;8.63;;;24.40;99.90;;;;;;5013260;28;20061;-48
2022/05/02 09:24:39;;;;;;;12.02;8.63;;;24.40;99.90;;;;;;4994328;28;20029;-47
2022/05/02 09:27:33;;;;;;;14.52;8.90;;;24.30;99.90;;;;;;5013225;28;20490;-48
2022/05/02 09:30:17;;;;;;;12.20;8.02;;;24.40;99.90;;;;;;5013248;28;20022;-47
2022/05/02 09:33:02;;;;;;;10.38;7.55;;;24.40;99.90;;;;;;5013033;28;20409;-47
2022/05/02 09:35:43;;;;;;;12.50;8.73;;;24.40;99.90;;;;;;5013059;28;20489;-47
2022/05/02 09:38:21;;;;;;;10.75;7.55;;;24.40;99.90;;;;;;5013105;28;20037;-46
2022/05/02 09:40:47;;;;;;;10.77;7.50;;;24.40;99.90;;;;;;5012857;28;20522;-46
2022/05/02 09:49:35;;;;;;;10.57;7.15;;;24.40;99.90;;;;;;5012978;28;20084;-47
2022/05/02 09:52:11;;;;;;;11.00;7.55;;;24.50;99.90;;;;;;5028158;28;20070;-45
2022/05/02 09:58:18;;;;;;;12.70;7.05;;;24.50;99.90;;;;;;5012647;28;20061;-47
2022/05/02 10:01:17;;;;;;;13.82;7.25;;;24.50;99.90;;;;;;5000399;28;20053;-47
2022/05/02 10:03:58;;;;;;;9.43;7.03;;;24.50;99.90;;;;;;5011020;28;20244;-45
2022/05/02 10:06:31;;;;;;;7.78;6.03;;;24.50;99.90;;;;;;5012296;28;20084;-46
2022/05/02 10:09:09;;;;;;;8.57;6.55;;;24.50;99.90;;;;;;5012285;28;20113;-46
2022/05/02 10:11:44;;;;;;;8.65;6.45;;;24.40;99.90;;;;;;5012508;28;20108;-46
2022/05/02 10:14:19;;;;;;;9.60;6.20;;;24.50;99.90;;;;;;5012359;28;20052;-46
2022/05/02 10:16:55;;;;;;;8.90;6.00;;;24.50;99.90;;;;;;5012162;28;20084;-46
2022/05/02 10:19:39;;;;;;;11.05;7.03;;;24.50;99.90;;;;;;5012155;28;20032;-47
2022/05/02 10:22:31;;;;;;;9.63;6.43;;;24.50;99.90;;;;;;5012115;28;20025;-47
2022/05/02 10:25:11;;;;;;;10.85;7.05;;;24.50;99.90;;;;;;5010872;28;20026;-47
2022/05/02 10:27:59;;;;;;;12.88;7.35;;;24.50;99.90;;;;;;5012018;28;20355;-47
2022/05/02 10:30:32;;;;;;;10.73;5.82;;;24.50;99.90;;;;;;5012042;28;20034;-47
2022/05/02 10:33:05;;;;;;;12.07;5.60;;;24.50;99.90;;;;;;5011872;28;20079;-47
2022/05/02 10:35:52;;;;;;;9.95;5.80;;;24.50;99.90;;;;;;5012291;28;20022;-46
2022/05/02 10:38:29;;;;;;;10.18;6.28;;;24.50;99.90;;;;;;5012009;28;20025;-46
2022/05/02 10:41:16;;;;;;;9.52;6.45;;;24.50;99.90;;;;;;5026821;28;20030;-46
2022/05/02 10:43:50;;;;;;;8.27;5.53;;;24.50;99.90;;;;;;5011766;28;20030;-46
2022/05/02 10:46:18;;;;;;;10.30;5.88;;;24.60;99.90;;;;;;5011773;28;20045;-45
2022/05/02 10:49:21;;;;;;;10.30;6.65;;;24.60;99.90;;;;;;5011751;28;20152;-46
2022/05/02 10:52:02;;;;;;;9.63;6.57;;;24.60;99.90;;;;;;5011718;28;20033;-45
2022/05/02 10:54:45;;;;;;;9.32;5.68;;;24.60;99.90;;;;;;5011640;28;20169;-45
2022/05/02 10:57:30;;;;;;;12.07;5.95;;;24.60;99.90;;;;;;5011530;28;20350;-46
2022/05/02 11:00:03;;;;;;;11.57;6.25;;;24.60;99.90;;;;;;5011378;28;20053;-46
2022/05/02 11:03:06;;;;;;;9.57;5.47;;;24.60;99.90;;;;;;5013800;28;20021;-46
2022/05/02 11:05:42;;;;;;;12.40;5.55;;;24.70;99.90;;;;;;5019938;28;20030;-47
2022/05/02 11:08:11;;;;;;;7.95;5.13;;;24.70;99.90;;;;;;5014029;28;20720;-47
2022/05/02 11:11:05;;;;;;;8.18;4.70;;;24.70;99.90;;;;;;5012227;28;20065;-46
2022/05/02 11:13:57;;;;;;;12.45;5.70;;;24.70;99.90;;;;;;5024521;28;20175;-46
2022/05/02 11:16:49;;;;;;;10.38;4.88;;;24.70;99.90;;;;;;5029532;28;20017;-47
2022/05/02 11:22:36;;;;;;;13.23;5.38;;;24.70;99.90;;;;;;5030966;28;20080;-46
2022/05/02 11:25:21;;;;;;;18.10;5.78;;;24.70;99.90;;;;;;5029670;28;20032;-47
2022/05/02 11:28:02;;;;;;;14.10;6.30;;;24.70;99.90;;;;;;5030928;28;20021;-47
2022/05/02 11:30:28;;;;;;;8.50;4.70;;;24.80;99.90;;;;;;5030881;28;20025;-46
2022/05/02 11:33:02;;;;;;;14.20;5.72;;;24.70;99.90;;;;;;5030651;28;20026;-46
2022/05/02 11:35:29;;;;;;;24.45;6.13;;;24.80;99.90;;;;;;5030950;28;20041;-47
2022/05/02 11:38:15;;;;;;;7.20;5.00;;;24.80;99.90;;;;;;5030912;28;20026;-46
2022/05/02 11:40:50;;;;;;;11.38;4.72;;;24.80;99.90;;;;;;5009645;28;20038;-46
2022/05/02 11:43:22;;;;;;;13.20;5.13;;;24.80;99.90;;;;;;5027100;28;20068;-46
2022/05/02 11:45:56;;;;;;;12.50;4.88;;;24.80;99.90;;;;;;5023908;28;20112;-45
2022/05/02 11:48:47;;;;;;;9.27;5.15;;;24.80;99.90;;;;;;5020099;28;20492;-46
2022/05/02 11:51:30;;;;;;;10.70;5.00;;;24.80;99.90;;;;;;5019823;28;20107;-46
2022/05/02 11:54:17;;;;;;;8.63;5.03;;;24.90;99.90;;;;;;5019092;28;20498;-46
2022/05/02 11:57:17;;;;;;;10.48;5.43;;;24.80;99.90;;;;;;5024382;28;20022;-45
2022/05/02 12:00:07;;;;;;;10.48;5.07;;;24.80;99.90;;;;;;5019690;28;20049;-46
2022/05/02 12:03:04;;;;;;;17.40;7.18;;;24.80;99.90;;;;;;5027784;28;20032;-46
2022/05/02 12:05:40;;;;;;;10.30;5.45;;;24.90;99.90;;;;;;5025469;28;20021;-46
2022/05/02 12:08:21;;;;;;;10.10;5.00;;;24.90;99.90;;;;;;5029047;28;20104;-46
2022/05/02 12:10:47;;;;;;;11.15;5.90;;;24.90;99.90;;;;;;5021492;28;20028;-46
2022/05/02 12:13:16;;;;;;;12.75;5.65;;;24.90;99.90;;;;;;5029704;28;20412;-46
2022/05/02 12:15:57;;;;;;;11.50;5.07;;;24.90;99.90;;;;;;5028524;28;20021;-46
2022/05/02 12:18:37;;;;;;;12.93;5.25;;;25.00;99.90;;;;;;5029884;28;20037;-49
2022/05/02 12:21:05;;;;;;;8.25;5.28;;;24.90;99.90;;;;;;5029825;28;20028;-46
2022/05/02 12:23:34;;;;;;;16.27;5.35;;;25.00;99.90;;;;;;5026175;28;20029;-46
2022/05/02 12:26:04;;;;;;;11.73;5.38;;;25.00;99.90;;;;;;5028985;28;20021;-46
2022/05/02 12:28:47;;;;;;;13.10;5.53;;;25.00;99.90;;;;;;5021214;28;20108;-48
2022/05/02 12:31:26;;;;;;;10.02;5.07;;;25.00;99.90;;;;;;5021310;28;20173;-46
2022/05/02 12:34:21;;;;;;;12.93;5.93;;;25.00;99.90;;;;;;5028267;28;20034;-47
2022/05/02 12:36:50;;;;;;;12.70;4.88;;;25.00;99.90;;;;;;5029639;28;20108;-46
2022/05/02 12:39:25;;;;;;;13.82;5.18;;;25.10;99.90;;;;;;5020690;28;20179;-47
2022/05/02 12:42:15;;;;;;;9.20;4.88;;;25.10;99.90;;;;;;5028434;28;20513;-46
2022/05/02 12:45:10;;;;;;;6.57;4.10;;;25.20;99.90;;;;;;5024924;28;20060;-48
2022/05/02 12:48:04;;;;;;;12.05;4.95;;;25.10;99.90;;;;;;5024119;28;20029;-47
2022/05/02 12:50:30;;;;;;;11.27;5.43;;;25.20;99.90;;;;;;5031460;28;20025;-46
2022/05/02 12:53:00;;;;;;;9.52;4.40;;;25.20;99.90;;;;;;5028603;28;20038;-47
2022/05/02 12:55:36;;;;;;;8.02;4.03;;;25.20;99.90;;;;;;5031455;28;20049;-46
2022/05/02 13:00:52;;;;;;;11.93;4.13;;;25.20;99.90;;;;;;5021483;28;20096;-46
2022/05/02 13:03:28;;;;;;;12.02;4.07;;;25.20;99.90;;;;;;5021845;28;20375;-47
2022/05/02 13:06:06;;;;;;;11.43;4.50;;;25.20;99.90;;;;;;5031591;28;20061;-47
2022/05/02 13:08:41;;;;;;;11.68;4.35;;;25.20;99.90;;;;;;5032333;28;20499;-48
2022/05/02 13:11:10;;;;;;;8.55;4.03;;;25.20;99.90;;;;;;5021133;28;20087;-47
2022/05/02 13:13:45;;;;;;;36.65;4.53;;;25.20;99.90;;;;;;5033039;28;20503;-46
2022/05/02 13:16:24;;;;;;;9.40;3.40;;;25.20;99.90;;;;;;5033194;28;20030;-46
2022/05/02 13:18:50;;;;;;;11.57;3.78;;;25.20;99.90;;;;;;5032844;28;20017;-47
2022/05/02 13:21:19;;;;;;;11.18;5.80;;;25.30;99.90;;;;;;5032898;28;20022;-47
2022/05/02 13:23:48;;;;;;;10.27;4.07;;;25.20;99.90;;;;;;5032995;28;20433;-47
2022/05/02 13:26:29;;;;;;;8.63;3.95;;;25.20;99.90;;;;;;5032384;28;20053;-46
2022/05/02 13:29:04;;;;;;;8.18;4.00;;;25.20;99.90;;;;;;5032070;28;20075;-47
2022/05/02 13:31:42;;;;;;;8.45;3.38;;;25.20;99.90;;;;;;5032892;28;20385;-47
2022/05/02 13:34:19;;;;;;;8.52;4.13;;;25.20;99.90;;;;;;5029149;28;20061;-47
2022/05/02 13:36:50;;;;;;;7.93;3.65;;;25.20;99.90;;;;;;5030255;28;20033;-47
2022/05/02 13:39:22;;;;;;;10.48;3.72;;;25.30;99.90;;;;;;5024711;28;20144;-46
2022/05/02 13:44:58;;;;;;;10.27;3.50;;;25.30;99.90;;;;;;5028906;28;20095;-46
2022/05/02 13:47:41;;;;;;;7.75;3.75;;;25.20;99.90;;;;;;5044376;28;20037;-47
2022/05/02 13:50:12;;;;;;;6.45;4.03;;;25.20;99.90;;;;;;5032127;28;20022;-46
2022/05/02 13:52:51;;;;;;;9.82;3.85;;;25.30;99.90;;;;;;5032195;28;20085;-47
2022/05/02 13:55:33;;;;;;;13.20;4.18;;;25.30;99.90;;;;;;5029744;28;20531;-47